Time;durP1;ratioP1;P1;durP2;ratioP2;P2;SDS_P1;SDS_P2;PMS_P1;PMS_P2;Temp;Humidity;BMP_temperature;BMP_pressure;BME280_temperature;BME280_humidity;BME280_pressure;Samples;Min_cycle;Max_cycle;Signal;HPM_P1;HPM_P2
2023/05/02 00:00:51;;;;;;;23.20;22.00;;;;;;;;;;5072322;28;20855;-76
2023/05/02 00:03:18;;;;;;;23.27;21.97;;;;;;;;;;5072965;28;20901;-77
2023/05/02 00:05:45;;;;;;;22.67;21.37;;;;;;;;;;5072361;28;20926;-76
2023/05/02 00:08:12;;;;;;;23.37;21.87;;;;;;;;;;5073105;28;20475;-76
2023/05/02 00:10:39;;;;;;;22.77;21.57;;;;;;;;;;5071968;28;20486;-76
2023/05/02 00:13:06;;;;;;;25.00;23.50;;;;;;;;;;5073075;28;20480;-76
2023/05/02 00:15:35;;;;;;;24.10;22.70;;;;;;;;;;5072057;28;20912;-77
2023/05/02 00:18:01;;;;;;;23.57;21.97;;;;;;;;;;5073198;28;20457;-76
2023/05/02 00:20:28;;;;;;;24.93;23.53;;;;;;;;;;5072581;28;20551;-77
2023/05/02 00:22:56;;;;;;;25.07;23.53;;;;;;;;;;5072812;28;20446;-76
2023/05/02 00:25:23;;;;;;;25.63;24.20;;;;;;;;;;5072902;28;20439;-76
2023/05/02 00:27:51;;;;;;;26.87;25.20;;;;;;;;;;5072306;28;20474;-75
2023/05/02 00:30:20;;;;;;;26.53;24.77;;;;;;;;;;5072032;28;20573;-76
2023/05/02 00:32:48;;;;;;;26.60;25.00;;;;;;;;;;5072938;28;20545;-76
2023/05/02 00:35:15;;;;;;;26.10;24.50;;;;;;;;;;5072635;28;20454;-76
2023/05/02 00:37:42;;;;;;;26.57;24.77;;;;;;;;;;5072886;28;20645;-76
2023/05/02 00:40:09;;;;;;;25.77;24.07;;;;;;;;;;5072389;28;20542;-75
2023/05/02 00:42:36;;;;;;;28.30;26.53;;;;;;;;;;5072648;28;20440;-75
2023/05/02 00:45:05;;;;;;;28.10;26.30;;;;;;;;;;5072762;28;20454;-76
2023/05/02 00:47:32;;;;;;;27.50;25.90;;;;;;;;;;5072155;28;20920;-76
2023/05/02 00:50:01;;;;;;;28.10;26.27;;;;;;;;;;5072479;28;20478;-76
2023/05/02 00:52:28;;;;;;;27.47;25.77;;;;;;;;;;5071906;28;20472;-77
2023/05/02 00:54:55;;;;;;;27.40;25.77;;;;;;;;;;5072571;28;20499;-76
2023/05/02 00:57:22;;;;;;;27.47;25.67;;;;;;;;;;5072050;28;20428;-76
2023/05/02 00:59:50;;;;;;;26.73;25.07;;;;;;;;;;5072191;28;20497;-76
2023/05/02 01:02:24;;;;;;;27.60;25.80;;;;;;;;;;5071885;28;20437;-76
2023/05/02 01:04:54;;;;;;;27.47;25.70;;;;;;;;;;5072517;28;20812;-76
2023/05/02 01:07:31;;;;;;;27.57;25.87;;;;;;;;;;5071567;28;20446;-76
2023/05/02 01:10:09;;;;;;;27.47;25.70;;;;;;;;;;5072397;28;20442;-75
2023/05/02 01:12:40;;;;;;;29.07;27.27;;;;;;;;;;5071823;28;20439;-75
2023/05/02 01:15:10;;;;;;;27.17;25.47;;;;;;;;;;5072286;28;20425;-76
2023/05/02 01:17:37;;;;;;;27.27;25.67;;;;;;;;;;5071802;28;20457;-74
2023/05/02 01:20:06;;;;;;;28.17;26.17;;;;;;;;;;5072000;28;20803;-75
2023/05/02 01:22:39;;;;;;;27.63;25.77;;;;;;;;;;5071825;28;20423;-75
2023/05/02 01:25:11;;;;;;;28.67;26.50;;;;;;;;;;5072166;28;20445;-75
2023/05/02 01:27:44;;;;;;;30.00;28.10;;;;;;;;;;5071440;28;20404;-75
2023/05/02 01:30:12;;;;;;;30.70;28.60;;;;;;;;;;5072193;28;20866;-77
2023/05/02 01:32:40;;;;;;;30.93;28.93;;;;;;;;;;5072104;28;20450;-76
2023/05/02 01:35:09;;;;;;;31.13;28.80;;;;;;;;;;5074880;28;20586;-75
2023/05/02 01:37:37;;;;;;;32.17;29.57;;;;;;;;;;5075144;28;20457;-75
2023/05/02 01:40:05;;;;;;;32.80;30.50;;;;;;;;;;5075307;28;20482;-75
2023/05/02 01:42:33;;;;;;;32.97;30.57;;;;;;;;;;5075447;28;20515;-75
2023/05/02 01:45:00;;;;;;;31.73;29.47;;;;;;;;;;5075071;28;21031;-75
2023/05/02 01:47:30;;;;;;;32.73;30.33;;;;;;;;;;5074839;28;20463;-75
2023/05/02 01:49:58;;;;;;;33.23;30.73;;;;;;;;;;5075368;28;20466;-76
2023/05/02 01:52:26;;;;;;;33.03;30.43;;;;;;;;;;5075550;28;20445;-76
2023/05/02 01:54:54;;;;;;;33.57;31.07;;;;;;;;;;5075009;28;20436;-76
2023/05/02 01:57:21;;;;;;;35.83;32.27;;;;;;;;;;5074653;28;20515;-75
2023/05/02 01:59:49;;;;;;;36.73;33.53;;;;;;;;;;5075196;28;20451;-75
2023/05/02 02:02:17;;;;;;;36.33;33.13;;;;;;;;;;5075202;28;21003;-76
2023/05/02 02:04:47;;;;;;;36.53;33.43;;;;;;;;;;5075065;28;20519;-75
2023/05/02 02:07:14;;;;;;;38.13;34.90;;;;;;;;;;5074869;28;20532;-76
2023/05/02 02:09:42;;;;;;;40.80;37.10;;;;;;;;;;5075214;28;20436;-76
2023/05/02 02:12:12;;;;;;;39.50;36.10;;;;;;;;;;5076039;28;20499;-76
2023/05/02 02:14:39;;;;;;;39.50;35.80;;;;;;;;;;5075238;28;20549;-76
2023/05/02 02:17:12;;;;;;;40.63;36.63;;;;;;;;;;5074390;28;20442;-76
2023/05/02 02:19:40;;;;;;;41.23;37.20;;;;;;;;;;5075060;28;20854;-76
2023/05/02 02:22:09;;;;;;;40.60;36.70;;;;;;;;;;5074528;28;20450;-76
2023/05/02 02:24:37;;;;;;;41.20;36.90;;;;;;;;;;5074170;28;20429;-76
2023/05/02 02:27:04;;;;;;;38.80;35.07;;;;;;;;;;5074608;28;20480;-76
2023/05/02 02:29:31;;;;;;;42.13;38.07;;;;;;;;;;5074972;28;20469;-76
2023/05/02 02:31:58;;;;;;;44.43;40.13;;;;;;;;;;5074616;28;20983;-76
2023/05/02 02:34:25;;;;;;;42.57;38.23;;;;;;;;;;5074705;28;20457;-76
2023/05/02 02:36:55;;;;;;;44.03;39.80;;;;;;;;;;5073593;28;20470;-77
2023/05/02 02:39:28;;;;;;;40.03;36.03;;;;;;;;;;5074592;28;20478;-76
2023/05/02 02:41:59;;;;;;;45.33;40.97;;;;;;;;;;5074400;28;20468;-76
2023/05/02 02:44:30;;;;;;;37.70;33.93;;;;;;;;;;5074601;28;20838;-76
2023/05/02 02:47:01;;;;;;;42.77;38.50;;;;;;;;;;5073352;28;20466;-76
2023/05/02 02:49:32;;;;;;;42.93;38.70;;;;;;;;;;5074246;28;20484;-78
2023/05/02 02:52:03;;;;;;;43.93;39.40;;;;;;;;;;5074573;28;20404;-78
2023/05/02 02:54:34;;;;;;;43.93;39.63;;;;;;;;;;5074233;28;20426;-76
2023/05/02 02:57:02;;;;;;;42.63;38.30;;;;;;;;;;5073413;28;20500;-76
2023/05/02 02:59:30;;;;;;;45.17;40.47;;;;;;;;;;5074101;28;20465;-76
2023/05/02 03:02:01;;;;;;;39.17;35.10;;;;;;;;;;5073994;28;20481;-76
2023/05/02 03:04:29;;;;;;;45.57;41.07;;;;;;;;;;5074139;28;20450;-76
2023/05/02 03:06:56;;;;;;;43.57;39.03;;;;;;;;;;5073116;28;20503;-76
2023/05/02 03:09:24;;;;;;;42.40;38.00;;;;;;;;;;5073928;28;20462;-76
2023/05/02 03:11:52;;;;;;;45.27;37.23;;;;;;;;;;5073766;28;20438;-76
2023/05/02 03:14:19;;;;;;;43.20;38.80;;;;;;;;;;5074187;28;20770;-76
2023/05/02 03:16:46;;;;;;;42.50;38.20;;;;;;;;;;5073783;28;20441;-76
2023/05/02 03:19:13;;;;;;;41.80;37.47;;;;;;;;;;5073984;28;20466;-76
2023/05/02 03:21:41;;;;;;;41.30;37.20;;;;;;;;;;5073558;28;20485;-76
2023/05/02 03:24:08;;;;;;;42.20;37.60;;;;;;;;;;5073447;28;20945;-76
2023/05/02 03:26:35;;;;;;;44.07;39.47;;;;;;;;;;5073036;28;20863;-76
2023/05/02 03:29:03;;;;;;;38.20;34.40;;;;;;;;;;5073392;28;20469;-76
2023/05/02 03:31:30;;;;;;;41.20;36.87;;;;;;;;;;5073277;28;20446;-76
2023/05/02 03:33:57;;;;;;;42.00;37.40;;;;;;;;;;5073468;28;20446;-76
2023/05/02 03:36:24;;;;;;;41.23;36.87;;;;;;;;;;5072643;28;20461;-76
2023/05/02 03:38:51;;;;;;;42.33;37.57;;;;;;;;;;5072851;28;20877;-75
2023/05/02 03:41:19;;;;;;;40.03;35.73;;;;;;;;;;5073079;28;20469;-75
2023/05/02 03:43:47;;;;;;;39.53;35.23;;;;;;;;;;5073428;28;20794;-75
2023/05/02 03:46:16;;;;;;;38.90;35.10;;;;;;;;;;5073214;28;20458;-76
2023/05/02 03:48:45;;;;;;;39.23;35.07;;;;;;;;;;5072925;28;20481;-76
2023/05/02 03:51:12;;;;;;;35.07;31.60;;;;;;;;;;5073277;28;20853;-76
2023/05/02 03:53:39;;;;;;;37.33;33.70;;;;;;;;;;5073083;28;20462;-76
2023/05/02 03:56:07;;;;;;;37.70;33.70;;;;;;;;;;5072425;28;20549;-76
2023/05/02 03:58:35;;;;;;;39.03;35.17;;;;;;;;;;5072662;28;20444;-77
2023/05/02 04:01:02;;;;;;;36.80;33.10;;;;;;;;;;5072594;28;20482;-77
2023/05/02 04:03:31;;;;;;;35.23;31.37;;;;;;;;;;5072628;28;20450;-76
2023/05/02 04:05:58;;;;;;;36.57;32.70;;;;;;;;;;5072250;28;20428;-76
2023/05/02 04:08:25;;;;;;;38.90;33.13;;;;;;;;;;5072708;28;20435;-76
2023/05/02 04:10:52;;;;;;;36.23;32.77;;;;;;;;;;5072928;28;20446;-77
2023/05/02 04:13:19;;;;;;;37.33;33.37;;;;;;;;;;5072703;28;20454;-76
2023/05/02 04:15:46;;;;;;;36.43;32.53;;;;;;;;;;5072183;28;20536;-76
2023/05/02 04:18:13;;;;;;;40.27;35.97;;;;;;;;;;5072707;28;20807;-76
2023/05/02 04:20:43;;;;;;;37.43;33.50;;;;;;;;;;5071937;28;20460;-76
2023/05/02 04:23:10;;;;;;;39.70;34.47;;;;;;;;;;5072309;28;20795;-76
2023/05/02 04:25:37;;;;;;;37.63;33.63;;;;;;;;;;5072198;28;20424;-76
2023/05/02 04:28:04;;;;;;;40.50;34.27;;;;;;;;;;5073182;28;20429;-76
2023/05/02 04:30:31;;;;;;;44.70;34.33;;;;;;;;;;5071911;28;20448;-76
2023/05/02 04:32:58;;;;;;;44.43;37.80;;;;;;;;;;5072809;28;20424;-77
2023/05/02 04:35:25;;;;;;;42.17;35.40;;;;;;;;;;5072443;28;20440;-76
2023/05/02 04:37:54;;;;;;;42.27;33.93;;;;;;;;;;5072467;28;20432;-76
2023/05/02 04:40:21;;;;;;;37.90;33.80;;;;;;;;;;5071789;28;20506;-76
2023/05/02 04:42:47;;;;;;;38.50;34.60;;;;;;;;;;5072323;28;20446;-76
2023/05/02 04:45:14;;;;;;;36.53;32.93;;;;;;;;;;5072196;28;20428;-76
2023/05/02 04:47:41;;;;;;;37.77;33.87;;;;;;;;;;5071996;28;20425;-75
2023/05/02 04:50:09;;;;;;;38.93;34.77;;;;;;;;;;5071653;28;20474;-76
2023/05/02 04:52:36;;;;;;;37.80;33.80;;;;;;;;;;5072277;28;20477;-75
2023/05/02 04:55:05;;;;;;;38.70;33.87;;;;;;;;;;5072749;28;20424;-76
2023/05/02 04:57:32;;;;;;;35.97;32.17;;;;;;;;;;5072041;28;20855;-76
2023/05/02 04:59:59;;;;;;;36.13;31.60;;;;;;;;;;5071978;28;21244;-76
2023/05/02 05:02:26;;;;;;;37.63;33.57;;;;;;;;;;5072333;28;20909;-76
2023/05/02 05:04:53;;;;;;;35.27;31.97;;;;;;;;;;5072284;28;20420;-76
2023/05/02 05:07:21;;;;;;;35.60;32.20;;;;;;;;;;5071534;28;20845;-76
2023/05/02 05:09:48;;;;;;;34.90;31.60;;;;;;;;;;5074854;28;20513;-76
2023/05/02 05:12:16;;;;;;;36.60;33.00;;;;;;;;;;5075680;28;20466;-77
2023/05/02 05:14:44;;;;;;;37.80;34.07;;;;;;;;;;5076061;28;20453;-76
2023/05/02 05:17:10;;;;;;;36.53;32.80;;;;;;;;;;5075403;28;20921;-76
2023/05/02 05:19:37;;;;;;;36.30;32.60;;;;;;;;;;5075657;28;20944;-76
2023/05/02 05:22:04;;;;;;;39.37;34.70;;;;;;;;;;5075335;28;21081;-76
2023/05/02 05:24:31;;;;;;;36.67;32.87;;;;;;;;;;5075998;28;20441;-76
2023/05/02 05:26:58;;;;;;;35.87;32.23;;;;;;;;;;5075396;28;20424;-76
2023/05/02 05:29:27;;;;;;;36.67;32.73;;;;;;;;;;5075935;28;20455;-76
2023/05/02 05:31:54;;;;;;;35.10;31.50;;;;;;;;;;5075815;28;20829;-76
2023/05/02 05:34:21;;;;;;;34.73;31.33;;;;;;;;;;5075936;28;20790;-76
2023/05/02 05:36:48;;;;;;;30.90;28.40;;;;;;;;;;5075243;28;20453;-76
2023/05/02 05:39:15;;;;;;;30.80;28.20;;;;;;;;;;5075134;28;20976;-76
2023/05/02 05:41:42;;;;;;;29.27;26.90;;;;;;;;;;5075436;28;20538;-76
2023/05/02 05:44:09;;;;;;;25.00;22.93;;;;;;;;;;5075392;28;20920;-75
2023/05/02 05:46:38;;;;;;;23.40;21.90;;;;;;;;;;5075019;28;20437;-75
2023/05/02 05:49:05;;;;;;;21.00;19.83;;;;;;;;;;5075443;28;20469;-76
2023/05/02 05:51:32;;;;;;;22.17;20.87;;;;;;;;;;5074832;28;20531;-75
2023/05/02 05:53:59;;;;;;;20.93;19.73;;;;;;;;;;5075354;28;20481;-76
2023/05/02 05:56:26;;;;;;;20.50;19.30;;;;;;;;;;5075082;28;20448;-76
2023/05/02 05:58:53;;;;;;;22.10;20.20;;;;;;;;;;5075378;28;20444;-76
2023/05/02 06:01:20;;;;;;;20.37;19.23;;;;;;;;;;5074590;28;20569;-75
2023/05/02 06:03:49;;;;;;;19.90;18.80;;;;;;;;;;5075053;28;20413;-75
2023/05/02 06:06:16;;;;;;;19.90;18.80;;;;;;;;;;5074589;28;20432;-76
2023/05/02 06:08:43;;;;;;;20.70;19.60;;;;;;;;;;5074775;28;20543;-76
2023/05/02 06:11:10;;;;;;;19.50;18.50;;;;;;;;;;5074703;28;20453;-76
2023/05/02 06:13:37;;;;;;;19.63;18.60;;;;;;;;;;5074442;28;20524;-76
2023/05/02 06:16:05;;;;;;;19.20;18.30;;;;;;;;;;5074311;28;20945;-76
2023/05/02 06:18:32;;;;;;;20.27;19.17;;;;;;;;;;5075153;28;20445;-76
2023/05/02 06:21:03;;;;;;;20.30;19.10;;;;;;;;;;5075084;28;20515;-76
2023/05/02 06:23:30;;;;;;;19.93;18.93;;;;;;;;;;5074599;28;20440;-76
2023/05/02 06:26:00;;;;;;;21.37;20.07;;;;;;;;;;5066199;28;20451;-76
2023/05/02 06:28:27;;;;;;;21.00;19.80;;;;;;;;;;5054875;28;20452;-76
2023/05/02 06:30:57;;;;;;;22.00;20.50;;;;;;;;;;5060003;28;20451;-76
2023/05/02 06:33:24;;;;;;;21.30;20.00;;;;;;;;;;5054453;28;20557;-75
2023/05/02 06:35:52;;;;;;;21.23;19.93;;;;;;;;;;5053931;28;20472;-76
2023/05/02 06:38:20;;;;;;;22.10;20.70;;;;;;;;;;5054537;28;20446;-75
2023/05/02 06:40:47;;;;;;;22.23;20.73;;;;;;;;;;5053830;28;20451;-74
2023/05/02 06:43:14;;;;;;;21.27;19.90;;;;;;;;;;5054602;28;21026;-75
2023/05/02 06:45:42;;;;;;;21.77;20.57;;;;;;;;;;5054190;28;20500;-75
2023/05/02 06:48:09;;;;;;;21.73;20.33;;;;;;;;;;5053984;28;20536;-75
2023/05/02 06:50:36;;;;;;;23.07;21.57;;;;;;;;;;5053407;28;21034;-76
2023/05/02 06:53:04;;;;;;;21.20;20.00;;;;;;;;;;5054315;28;20485;-76
2023/05/02 06:55:32;;;;;;;22.93;21.43;;;;;;;;;;5053218;28;20492;-75
2023/05/02 06:57:59;;;;;;;21.77;20.47;;;;;;;;;;5054309;28;20523;-75
2023/05/02 07:00:26;;;;;;;21.40;20.10;;;;;;;;;;5053353;28;20490;-76
2023/05/02 07:02:53;;;;;;;20.20;19.10;;;;;;;;;;5054224;28;20482;-77
2023/05/02 07:05:20;;;;;;;22.03;20.57;;;;;;;;;;5054150;28;20898;-76
2023/05/02 07:07:47;;;;;;;20.83;19.43;;;;;;;;;;5053887;28;20827;-76
2023/05/02 07:10:14;;;;;;;21.97;20.43;;;;;;;;;;5054940;28;20444;-76
2023/05/02 07:12:43;;;;;;;21.60;20.10;;;;;;;;;;5056749;28;20409;-76
2023/05/02 07:15:10;;;;;;;21.80;20.37;;;;;;;;;;5054574;28;20872;-82
2023/05/02 07:17:37;;;;;;;21.30;20.03;;;;;;;;;;5061655;28;20507;-83
2023/05/02 07:20:04;;;;;;;21.23;19.73;;;;;;;;;;5060414;28;20445;-83
2023/05/02 07:22:31;;;;;;;22.83;21.03;;;;;;;;;;5060653;28;20461;-83
2023/05/02 07:24:59;;;;;;;20.27;19.13;;;;;;;;;;5060031;28;20986;-81
2023/05/02 07:27:26;;;;;;;21.53;19.97;;;;;;;;;;5059892;28;20454;-85
2023/05/02 07:29:54;;;;;;;21.13;19.53;;;;;;;;;;5058734;28;20971;-76
2023/05/02 07:32:21;;;;;;;20.70;19.50;;;;;;;;;;5057442;28;20413;-76
2023/05/02 07:34:48;;;;;;;20.47;19.40;;;;;;;;;;5053496;28;20520;-76
2023/05/02 07:37:15;;;;;;;21.00;19.43;;;;;;;;;;5053390;28;20424;-76
2023/05/02 07:39:42;;;;;;;21.27;19.73;;;;;;;;;;5052813;28;20486;-78
2023/05/02 07:42:09;;;;;;;20.53;18.90;;;;;;;;;;5061447;28;20534;-81
2023/05/02 07:44:36;;;;;;;20.20;19.00;;;;;;;;;;5062860;28;20504;-83
2023/05/02 07:47:05;;;;;;;20.33;19.23;;;;;;;;;;5055172;28;20417;-77
2023/05/02 07:49:32;;;;;;;21.37;19.80;;;;;;;;;;5064166;28;20480;-77
2023/05/02 07:51:59;;;;;;;21.73;20.23;;;;;;;;;;5053950;28;20443;-78
2023/05/02 07:54:26;;;;;;;22.13;20.30;;;;;;;;;;5054087;28;20496;-77
2023/05/02 07:56:56;;;;;;;22.00;19.90;;;;;;;;;;5053220;28;20475;-77
2023/05/02 07:59:23;;;;;;;24.70;21.10;;;;;;;;;;5052616;28;20557;-77
2023/05/02 08:01:50;;;;;;;20.70;19.40;;;;;;;;;;5052721;28;21010;-76
2023/05/02 08:04:18;;;;;;;20.90;19.60;;;;;;;;;;5053271;28;20487;-77
2023/05/02 08:06:45;;;;;;;21.20;19.80;;;;;;;;;;5052818;28;20455;-76
2023/05/02 08:09:12;;;;;;;22.33;20.83;;;;;;;;;;5052936;28;20798;-76
2023/05/02 08:11:40;;;;;;;22.07;20.37;;;;;;;;;;5052496;28;20515;-76
2023/05/02 08:14:07;;;;;;;22.47;21.10;;;;;;;;;;5052561;28;20975;-76
2023/05/02 08:16:34;;;;;;;22.70;21.17;;;;;;;;;;5052749;28;20479;-76
2023/05/02 08:19:01;;;;;;;23.23;21.67;;;;;;;;;;5052948;28;20525;-76
2023/05/02 08:21:30;;;;;;;22.17;20.57;;;;;;;;;;5052460;28;20935;-77
2023/05/02 08:23:58;;;;;;;24.30;22.40;;;;;;;;;;5052757;28;20467;-76
2023/05/02 08:26:25;;;;;;;24.30;22.27;;;;;;;;;;5052726;28;20431;-76
2023/05/02 08:28:53;;;;;;;24.63;22.80;;;;;;;;;;5052562;28;20473;-76
2023/05/02 08:31:20;;;;;;;23.77;21.77;;;;;;;;;;5052798;28;20468;-76
2023/05/02 08:33:47;;;;;;;23.87;21.93;;;;;;;;;;5052437;28;20467;-77
2023/05/02 08:36:15;;;;;;;24.47;21.57;;;;;;;;;;5053402;28;20487;-77
2023/05/02 08:38:44;;;;;;;22.80;21.13;;;;;;;;;;5053880;28;20456;-77
2023/05/02 08:41:12;;;;;;;23.67;22.00;;;;;;;;;;5054213;28;20449;-77
2023/05/02 08:43:39;;;;;;;22.10;20.43;;;;;;;;;;5057143;28;20464;-78
2023/05/02 08:46:07;;;;;;;23.27;21.50;;;;;;;;;;5058112;28;20934;-77
2023/05/02 08:48:36;;;;;;;22.23;20.63;;;;;;;;;;5059776;28;20460;-77
2023/05/02 08:51:03;;;;;;;21.47;19.97;;;;;;;;;;5059844;28;20447;-77
2023/05/02 08:53:31;;;;;;;23.50;21.70;;;;;;;;;;5059267;28;20825;-77
2023/05/02 08:55:59;;;;;;;23.50;21.80;;;;;;;;;;5058250;28;20498;-77
2023/05/02 08:58:26;;;;;;;24.23;21.20;;;;;;;;;;5058926;28;20446;-80
2023/05/02 09:00:54;;;;;;;22.60;20.90;;;;;;;;;;5060224;28;20454;-76
2023/05/02 09:03:24;;;;;;;23.33;21.23;;;;;;;;;;5059288;28;20986;-77
2023/05/02 09:05:53;;;;;;;23.90;21.70;;;;;;;;;;5058982;28;20481;-79
2023/05/02 09:08:23;;;;;;;23.20;21.50;;;;;;;;;;5063486;28;20473;-78
2023/05/02 09:10:50;;;;;;;23.13;21.10;;;;;;;;;;5063811;28;20950;-78
2023/05/02 09:13:31;;;;;;;23.27;21.40;;;;;;;;;;5062493;28;20450;-78
2023/05/02 09:15:59;;;;;;;23.50;21.60;;;;;;;;;;5060502;28;20446;-75
2023/05/02 09:18:29;;;;;;;23.00;21.17;;;;;;;;;;5059740;28;20457;-77
2023/05/02 09:20:55;;;;;;;22.77;20.97;;;;;;;;;;5060413;28;20470;-77
2023/05/02 09:23:32;;;;;;;22.00;20.50;;;;;;;;;;5059672;28;20578;-77
2023/05/02 09:25:59;;;;;;;22.43;21.03;;;;;;;;;;5058261;28;20437;-75
2023/05/02 09:28:40;;;;;;;22.63;20.77;;;;;;;;;;5059835;28;20428;-77
2023/05/02 09:31:08;;;;;;;24.57;22.87;;;;;;;;;;5059917;28;20466;-78
2023/05/02 09:33:35;;;;;;;22.87;21.00;;;;;;;;;;5062524;28;20450;-81
2023/05/02 09:36:02;;;;;;;22.20;20.53;;;;;;;;;;5059899;28;20462;-78
2023/05/02 09:38:30;;;;;;;21.70;20.40;;;;;;;;;;5059703;28;20428;-77
2023/05/02 09:40:57;;;;;;;22.00;20.23;;;;;;;;;;5059214;28;20467;-75
2023/05/02 09:43:24;;;;;;;22.30;21.00;;;;;;;;;;5060453;28;20461;-78
2023/05/02 09:45:58;;;;;;;22.57;21.13;;;;;;;;;;5061018;28;20450;-76
2023/05/02 09:48:26;;;;;;;22.60;21.07;;;;;;;;;;5058080;28;20450;-77
2023/05/02 09:50:54;;;;;;;22.60;21.13;;;;;;;;;;5058303;28;20500;-77
2023/05/02 09:53:21;;;;;;;21.63;20.20;;;;;;;;;;5058481;28;20433;-77
2023/05/02 09:55:50;;;;;;;21.27;19.67;;;;;;;;;;5055451;28;20890;-77
2023/05/02 09:58:21;;;;;;;22.20;20.73;;;;;;;;;;5056424;28;20913;-77
2023/05/02 10:00:50;;;;;;;23.27;21.30;;;;;;;;;;5055680;28;20409;-75
2023/05/02 10:03:19;;;;;;;21.47;20.27;;;;;;;;;;5056270;28;20868;-77
2023/05/02 10:05:46;;;;;;;21.93;20.30;;;;;;;;;;5055905;28;20504;-77
2023/05/02 10:08:14;;;;;;;21.73;20.30;;;;;;;;;;5056010;28;20951;-77
2023/05/02 10:10:43;;;;;;;21.67;20.27;;;;;;;;;;5055005;28;20449;-77
2023/05/02 10:13:10;;;;;;;22.37;20.60;;;;;;;;;;5054260;28;20469;-75
2023/05/02 10:15:41;;;;;;;22.37;21.03;;;;;;;;;;5053936;28;21121;-76
2023/05/02 10:18:09;;;;;;;21.00;19.60;;;;;;;;;;5055436;28;20421;-77
2023/05/02 10:20:38;;;;;;;21.50;20.10;;;;;;;;;;5054601;28;20788;-78
2023/05/02 10:23:05;;;;;;;20.93;19.57;;;;;;;;;;5054330;28;20540;-76
2023/05/02 10:25:33;;;;;;;20.87;19.67;;;;;;;;;;5053090;28;20930;-76
2023/05/02 10:28:00;;;;;;;21.33;20.10;;;;;;;;;;5055272;28;20433;-77
2023/05/02 10:30:27;;;;;;;21.67;20.07;;;;;;;;;;5054611;28;20512;-75
2023/05/02 10:32:54;;;;;;;22.20;20.60;;;;;;;;;;5055699;28;20437;-78
2023/05/02 10:35:22;;;;;;;22.93;21.43;;;;;;;;;;5054298;28;20480;-76
2023/05/02 10:37:50;;;;;;;21.97;20.50;;;;;;;;;;5054289;28;20410;-76
2023/05/02 10:40:18;;;;;;;22.93;21.50;;;;;;;;;;5054609;28;20895;-75
2023/05/02 10:42:49;;;;;;;22.40;20.90;;;;;;;;;;5054691;28;20457;-76
2023/05/02 10:45:31;;;;;;;22.47;20.97;;;;;;;;;;5055653;28;20439;-82
2023/05/02 10:48:13;;;;;;;22.70;20.87;;;;;;;;;;5054293;28;20762;-78
2023/05/02 10:50:45;;;;;;;23.13;21.63;;;;;;;;;;5054142;28;20476;-75
2023/05/02 10:53:26;;;;;;;23.97;21.83;;;;;;;;;;5054702;28;20504;-75
2023/05/02 10:56:13;;;;;;;23.23;21.50;;;;;;;;;;5053754;28;20425;-75
2023/05/02 10:58:40;;;;;;;23.00;21.30;;;;;;;;;;5053734;28;20471;-76
2023/05/02 11:01:26;;;;;;;23.67;22.07;;;;;;;;;;5053876;28;20425;-76
2023/05/02 11:03:54;;;;;;;24.43;22.77;;;;;;;;;;5053480;28;20482;-75
2023/05/02 11:06:21;;;;;;;24.53;22.73;;;;;;;;;;5052426;28;20773;-76
2023/05/02 11:08:49;;;;;;;24.23;22.50;;;;;;;;;;5053552;28;20457;-79
2023/05/02 11:11:39;;;;;;;23.47;21.97;;;;;;;;;;5054200;28;20490;-76
2023/05/02 11:14:06;;;;;;;24.27;22.60;;;;;;;;;;5053611;28;20497;-75
2023/05/02 11:16:48;;;;;;;24.27;22.50;;;;;;;;;;5053081;28;20508;-76
2023/05/02 11:19:15;;;;;;;23.30;21.70;;;;;;;;;;5052834;28;20511;-76
2023/05/02 11:21:42;;;;;;;24.70;22.17;;;;;;;;;;5053956;28;20421;-76
2023/05/02 11:24:28;;;;;;;23.00;21.50;;;;;;;;;;5053716;28;20526;-76
2023/05/02 11:27:21;;;;;;;23.67;22.20;;;;;;;;;;5053132;28;20455;-75
2023/05/02 11:30:03;;;;;;;23.63;21.73;;;;;;;;;;5052941;28;20490;-76
2023/05/02 11:32:45;;;;;;;23.17;21.63;;;;;;;;;;5054658;28;20432;-76
2023/05/02 11:35:15;;;;;;;24.13;22.43;;;;;;;;;;5053035;28;20507;-76
2023/05/02 11:37:42;;;;;;;24.37;22.50;;;;;;;;;;5053208;28;20501;-76
2023/05/02 11:40:13;;;;;;;24.10;22.60;;;;;;;;;;5052989;28;20470;-76
2023/05/02 11:42:40;;;;;;;26.20;24.23;;;;;;;;;;5053853;28;20425;-76
2023/05/02 11:45:08;;;;;;;24.10;22.27;;;;;;;;;;5053925;28;20422;-76
2023/05/02 11:47:35;;;;;;;23.23;21.80;;;;;;;;;;5053052;28;20462;-77
2023/05/02 11:50:05;;;;;;;24.23;22.40;;;;;;;;;;5053198;28;21037;-76
2023/05/02 11:52:37;;;;;;;22.50;21.00;;;;;;;;;;5053588;28;20431;-77
2023/05/02 11:55:05;;;;;;;23.70;22.20;;;;;;;;;;5053874;28;20409;-77
2023/05/02 11:57:33;;;;;;;23.40;21.80;;;;;;;;;;5052747;28;20801;-77
2023/05/02 12:00:01;;;;;;;23.03;21.53;;;;;;;;;;5053432;28;20457;-77
2023/05/02 12:02:37;;;;;;;25.37;23.13;;;;;;;;;;5053771;28;20879;-76
2023/05/02 12:05:05;;;;;;;23.93;21.57;;;;;;;;;;5053045;28;20953;-76
2023/05/02 12:07:37;;;;;;;23.23;21.60;;;;;;;;;;5051807;28;20441;-76
2023/05/02 12:10:05;;;;;;;23.77;21.97;;;;;;;;;;5054862;28;20493;-77
2023/05/02 12:12:32;;;;;;;23.33;21.73;;;;;;;;;;5054354;28;20935;-76
2023/05/02 12:14:59;;;;;;;23.93;22.37;;;;;;;;;;5052351;28;20499;-76
2023/05/02 12:17:26;;;;;;;23.63;22.13;;;;;;;;;;5052613;28;20471;-78
2023/05/02 12:19:53;;;;;;;23.63;21.83;;;;;;;;;;5056196;28;20441;-76
2023/05/02 12:22:20;;;;;;;23.50;21.80;;;;;;;;;;5052790;28;20447;-77
2023/05/02 12:24:49;;;;;;;24.57;22.53;;;;;;;;;;5053793;28;20457;-76
2023/05/02 12:27:17;;;;;;;24.03;22.53;;;;;;;;;;5052537;28;20825;-75
2023/05/02 12:29:44;;;;;;;23.10;21.33;;;;;;;;;;5052517;28;20536;-76
2023/05/02 12:32:12;;;;;;;23.03;21.23;;;;;;;;;;5053181;28;20446;-76
2023/05/02 12:34:39;;;;;;;22.93;21.23;;;;;;;;;;5053756;28;20485;-75
2023/05/02 12:37:06;;;;;;;22.90;21.37;;;;;;;;;;5052567;28;20463;-78
2023/05/02 12:39:37;;;;;;;23.23;21.83;;;;;;;;;;5052580;28;20507;-76
2023/05/02 12:42:12;;;;;;;22.80;21.37;;;;;;;;;;5053120;28;20442;-77
2023/05/02 12:44:40;;;;;;;22.80;21.20;;;;;;;;;;5052997;28;20452;-76
2023/05/02 12:47:07;;;;;;;24.20;22.50;;;;;;;;;;5052030;28;20451;-76
2023/05/02 12:49:48;;;;;;;23.67;22.07;;;;;;;;;;5051926;28;20528;-75
2023/05/02 12:52:15;;;;;;;23.27;21.60;;;;;;;;;;5052865;28;20427;-75
2023/05/02 12:54:43;;;;;;;24.80;23.07;;;;;;;;;;5052614;28;20939;-77
2023/05/02 12:57:11;;;;;;;25.07;23.23;;;;;;;;;;5053152;28;20459;-76
2023/05/02 12:59:39;;;;;;;24.40;22.60;;;;;;;;;;5052559;28;20446;-76
2023/05/02 13:02:06;;;;;;;24.93;22.67;;;;;;;;;;5052753;28;20422;-76
2023/05/02 13:04:37;;;;;;;24.90;22.97;;;;;;;;;;5052134;28;21038;-76
2023/05/02 13:07:05;;;;;;;23.90;22.10;;;;;;;;;;5052114;28;20465;-76
2023/05/02 13:09:32;;;;;;;23.33;21.73;;;;;;;;;;5052226;28;20441;-75
2023/05/02 13:11:59;;;;;;;23.23;21.70;;;;;;;;;;5052644;28;20446;-76
2023/05/02 13:14:28;;;;;;;23.00;21.50;;;;;;;;;;5052087;28;20445;-76
2023/05/02 13:16:55;;;;;;;24.60;22.90;;;;;;;;;;5051866;28;20405;-77
2023/05/02 13:19:22;;;;;;;25.10;23.17;;;;;;;;;;5052249;28;20445;-76
2023/05/02 13:21:49;;;;;;;24.27;22.67;;;;;;;;;;5052552;28;20481;-77
2023/05/02 13:24:16;;;;;;;24.13;22.50;;;;;;;;;;5052497;28;21009;-77
2023/05/02 13:26:43;;;;;;;25.10;23.50;;;;;;;;;;5052701;28;20463;-77
2023/05/02 13:29:11;;;;;;;24.10;22.60;;;;;;;;;;5053424;28;20481;-77
2023/05/02 13:31:39;;;;;;;24.37;22.57;;;;;;;;;;5056846;28;20458;-77
2023/05/02 13:34:06;;;;;;;23.30;21.87;;;;;;;;;;5058132;28;20475;-78
2023/05/02 13:36:33;;;;;;;23.63;22.10;;;;;;;;;;5054384;28;21031;-76
2023/05/02 13:39:01;;;;;;;24.07;22.27;;;;;;;;;;5055402;28;20971;-77
2023/05/02 13:41:28;;;;;;;25.37;23.53;;;;;;;;;;5055548;28;20949;-77
2023/05/02 13:43:55;;;;;;;25.30;23.20;;;;;;;;;;5055190;28;20835;-77
2023/05/02 13:46:23;;;;;;;26.97;24.90;;;;;;;;;;5054096;28;20461;-76
2023/05/02 13:48:51;;;;;;;23.13;21.63;;;;;;;;;;5055377;28;20533;-76
2023/05/02 13:51:18;;;;;;;25.53;23.60;;;;;;;;;;5055763;28;20421;-76
2023/05/02 13:53:45;;;;;;;25.10;23.07;;;;;;;;;;5055453;28;20930;-76
2023/05/02 13:56:12;;;;;;;22.07;20.83;;;;;;;;;;5054751;28;20450;-76
2023/05/02 13:58:39;;;;;;;24.50;22.77;;;;;;;;;;5053914;28;21021;-76
2023/05/02 14:01:06;;;;;;;23.87;22.27;;;;;;;;;;5055446;28;20446;-76
2023/05/02 14:03:33;;;;;;;24.63;22.87;;;;;;;;;;5055305;28;20493;-76
2023/05/02 14:06:02;;;;;;;23.93;22.53;;;;;;;;;;5054526;28;20906;-76
2023/05/02 14:08:29;;;;;;;24.50;22.80;;;;;;;;;;5054807;28;20852;-76
2023/05/02 14:10:56;;;;;;;25.07;23.33;;;;;;;;;;5054906;28;20445;-76
2023/05/02 14:13:23;;;;;;;24.30;22.30;;;;;;;;;;5055452;28;20447;-75
2023/05/02 14:15:50;;;;;;;24.17;22.53;;;;;;;;;;5054531;28;20801;-78
2023/05/02 14:18:17;;;;;;;26.10;23.90;;;;;;;;;;5055278;28;20451;-76
2023/05/02 14:20:44;;;;;;;24.17;22.47;;;;;;;;;;5054577;28;20441;-76
2023/05/02 14:23:13;;;;;;;25.93;23.67;;;;;;;;;;5054288;28;20578;-76